Time;durP1;ratioP1;P1;durP2;ratioP2;P2;SDS_P1;SDS_P2;PMS_P1;PMS_P2;Temp;Humidity;BMP_temperature;BMP_pressure;BME280_temperature;BME280_humidity;BME280_pressure;Samples;Min_cycle;Max_cycle;Signal;HPM_P1;HPM_P2
2023/10/18 00:00:33;;;;;;;9.73;5.70;;;;;;;7.88;68.33;100378.91;4142858;28;20042;-65
2023/10/18 00:02:37;;;;;;;9.60;5.70;;;;;;;7.79;68.94;100378.69;4150000;28;20452;-66
2023/10/18 00:04:40;;;;;;;12.30;5.70;;;;;;;7.75;69.10;100371.69;4145991;28;20034;-66
2023/10/18 00:06:47;;;;;;;8.50;5.35;;;;;;;7.75;69.07;100371.69;4145600;28;20124;-66
2023/10/18 00:08:57;;;;;;;11.27;6.38;;;;;;;7.75;69.27;100379.47;4145434;28;20559;-66
2023/10/18 00:11:00;;;;;;;9.95;6.78;;;;;;;7.75;68.64;100369.09;4145732;28;20037;-66
2023/10/18 00:13:03;;;;;;;22.67;7.07;;;;;;;7.74;68.61;100372.53;4146276;28;20042;-66
2023/10/18 00:15:11;;;;;;;9.82;6.32;;;;;;;7.73;69.29;100373.38;4143413;28;20050;-66
2023/10/18 00:17:14;;;;;;;10.25;6.07;;;;;;;7.74;68.90;100369.94;4149202;28;20042;-66
2023/10/18 00:19:17;;;;;;;10.27;6.28;;;;;;;7.73;68.85;100375.97;4144180;28;20057;-66
2023/10/18 00:21:21;;;;;;;13.18;6.43;;;;;;;7.69;69.35;100378.50;4145614;28;20042;-65
2023/10/18 00:23:25;;;;;;;10.52;6.45;;;;;;;7.60;69.10;100367.88;4146191;28;20488;-66
2023/10/18 00:25:27;;;;;;;12.60;6.55;;;;;;;7.43;69.11;100364.00;4142394;28;20525;-65
2023/10/18 00:27:30;;;;;;;11.05;6.15;;;;;;;7.39;69.35;100357.91;4143989;28;20137;-66
2023/10/18 00:29:33;;;;;;;9.07;5.68;;;;;;;7.39;69.59;100362.16;4144448;28;20077;-65
2023/10/18 00:31:36;;;;;;;10.45;6.10;;;;;;;7.40;69.01;100362.22;4143729;28;20045;-66
2023/10/18 00:33:39;;;;;;;9.60;5.40;;;;;;;7.40;69.15;100366.50;4139722;28;20041;-66
2023/10/18 00:35:42;;;;;;;10.45;6.40;;;;;;;7.44;69.70;100373.53;4145026;28;20063;-65
2023/10/18 00:37:44;;;;;;;13.02;6.65;;;;;;;7.45;69.24;100362.34;4144115;28;21082;-64
2023/10/18 00:39:49;;;;;;;11.68;6.32;;;;;;;7.47;68.87;100364.13;4144811;28;20036;-65
2023/10/18 00:41:53;;;;;;;9.75;5.63;;;;;;;7.44;68.68;100355.41;4144474;28;20045;-65
2023/10/18 00:43:56;;;;;;;11.70;6.68;;;;;;;7.40;69.22;100346.69;4145586;28;20045;-65
2023/10/18 00:46:00;;;;;;;10.45;6.45;;;;;;;7.44;69.00;100345.06;4159636;28;20116;-65
2023/10/18 00:48:06;;;;;;;9.90;6.47;;;;;;;7.46;69.25;100335.63;4144208;28;20041;-65
2023/10/18 00:50:14;;;;;;;15.38;5.32;;;;;;;7.49;68.96;100335.69;4142859;28;20091;-66
2023/10/18 00:52:17;;;;;;;12.15;6.72;;;;;;;7.42;68.86;100337.28;4143942;28;20037;-65
2023/10/18 00:54:21;;;;;;;8.02;4.85;;;;;;;7.42;68.70;100339.88;4143839;28;20046;-65
2023/10/18 00:56:27;;;;;;;12.03;6.50;;;;;;;7.35;69.11;100330.19;4144652;28;20113;-65
2023/10/18 00:58:32;;;;;;;9.15;5.18;;;;;;;7.30;69.14;100327.50;4140888;28;20289;-66
2023/10/18 01:00:35;;;;;;;;;;;;;;;7.12;69.08;100327.03;4143304;28;20385;-66
2023/10/18 01:02:41;;;;;;;17.50;7.20;;;;;;;7.21;69.13;100318.63;4141963;28;19928;-66
2023/10/18 01:04:52;;;;;;;10.55;5.97;;;;;;;7.25;68.59;100318.75;4142942;28;20046;-66
2023/10/18 01:06:57;;;;;;;10.90;5.75;;;;;;;7.28;68.86;100312.78;4133314;28;20038;-66
2023/10/18 01:09:03;;;;;;;12.13;6.05;;;;;;;7.33;68.75;100324.13;4144934;28;20034;-66
2023/10/18 01:11:10;;;;;;;13.40;6.65;;;;;;;7.32;68.56;100317.19;4143374;28;20041;-65
2023/10/18 01:13:15;;;;;;;10.15;5.53;;;;;;;7.27;68.60;100316.19;4144118;28;20495;-66
2023/10/18 01:15:19;;;;;;;9.07;5.40;;;;;;;7.26;69.15;100304.97;4142625;28;20042;-65
2023/10/18 01:17:22;;;;;;;10.05;6.20;;;;;;;7.20;69.03;100307.44;4142112;28;20092;-65
2023/10/18 01:19:26;;;;;;;11.10;6.10;;;;;;;7.19;69.09;100305.66;4144276;28;20377;-65
2023/10/18 01:21:32;;;;;;;12.30;5.68;;;;;;;7.15;68.77;100301.25;4141494;28;20700;-65
2023/10/18 01:23:38;;;;;;;10.68;6.95;;;;;;;7.06;69.15;100301.03;4144432;28;20049;-65
2023/10/18 01:25:43;;;;;;;10.55;6.28;;;;;;;7.07;69.30;100305.38;4134128;28;20039;-65
2023/10/18 01:27:46;;;;;;;12.13;6.10;;;;;;;7.01;69.07;100294.84;4143526;28;20430;-65
2023/10/18 01:29:48;;;;;;;10.77;6.40;;;;;;;7.04;69.20;100294.91;4142862;28;20034;-65
2023/10/18 01:31:55;;;;;;;10.23;6.00;;;;;;;7.04;69.33;100292.34;4142660;28;20128;-65
2023/10/18 01:33:59;;;;;;;9.23;6.32;;;;;;;7.07;69.50;100292.44;4143631;28;20128;-65
2023/10/18 01:36:01;;;;;;;8.27;5.43;;;;;;;7.06;68.74;100288.97;4141786;28;20034;-65
2023/10/18 01:38:05;;;;;;;14.82;6.13;;;;;;;7.07;69.05;100298.47;4143113;28;20042;-65
2023/10/18 01:40:21;;;;;;;10.90;6.37;;;;;;;7.07;69.20;100295.88;4144234;28;20136;-65
2023/10/18 01:42:25;;;;;;;15.10;6.28;;;;;;;7.01;69.19;100284.50;4154703;28;20041;-65
2023/10/18 01:44:32;;;;;;;12.30;6.75;;;;;;;6.99;69.05;100284.47;4146638;28;20504;-65
2023/10/18 01:46:35;;;;;;;14.02;6.88;;;;;;;6.98;69.11;100287.91;4141003;28;20037;-65
2023/10/18 01:48:38;;;;;;;13.27;6.85;;;;;;;7.01;69.21;100279.34;4142196;28;20103;-65
2023/10/18 01:50:43;;;;;;;8.68;5.35;;;;;;;7.02;68.82;100283.69;4159459;28;20524;-66
2023/10/18 01:52:46;;;;;;;9.65;6.28;;;;;;;7.03;68.77;100270.78;4142702;28;20080;-65
2023/10/18 01:54:49;;;;;;;11.65;7.03;;;;;;;6.99;68.79;100276.72;4143303;28;20081;-65
2023/10/18 01:56:53;;;;;;;11.93;6.72;;;;;;;7.00;69.24;100270.72;4145148;28;20037;-65
2023/10/18 01:58:57;;;;;;;11.55;6.65;;;;;;;7.01;68.98;100272.47;4146882;28;20034;-66
2023/10/18 02:01:01;;;;;;;9.77;5.88;;;;;;;6.99;68.80;100274.13;4146792;28;20124;-65
2023/10/18 02:03:05;;;;;;;8.77;5.60;;;;;;;7.01;68.94;100275.06;4144822;28;20068;-65
2023/10/18 02:05:09;;;;;;;8.98;5.80;;;;;;;7.03;68.88;100275.09;4147211;28;20407;-65
2023/10/18 02:07:17;;;;;;;10.57;5.85;;;;;;;6.96;68.89;100274.91;4145879;28;20506;-65
2023/10/18 02:09:21;;;;;;;11.18;5.78;;;;;;;6.91;69.34;100276.53;4147362;28;20038;-65
2023/10/18 02:11:24;;;;;;;8.35;5.63;;;;;;;6.92;69.59;100270.53;4137929;28;20081;-65
2023/10/18 02:13:27;;;;;;;12.07;6.20;;;;;;;6.91;69.39;100266.19;4153772;28;20041;-65
2023/10/18 02:15:32;;;;;;;10.07;6.82;;;;;;;6.91;69.30;100268.78;4142224;28;20041;-65
2023/10/18 02:17:35;;;;;;;10.02;5.53;;;;;;;6.87;69.78;100272.09;4143775;28;20136;-65
2023/10/18 02:19:39;;;;;;;8.75;5.50;;;;;;;6.83;69.50;100267.69;4151936;28;20140;-65
2023/10/18 02:21:42;;;;;;;8.85;6.20;;;;;;;6.81;70.05;100274.53;4149502;28;20128;-65
2023/10/18 02:23:50;;;;;;;8.35;5.30;;;;;;;6.80;69.90;100278.84;4146886;28;20069;-66
2023/10/18 02:25:53;;;;;;;13.15;5.88;;;;;;;6.79;69.84;100276.19;4146645;28;20038;-65
2023/10/18 02:27:55;;;;;;;7.95;5.03;;;;;;;6.72;69.77;100276.88;4151840;28;20041;-65
2023/10/18 02:29:58;;;;;;;8.93;5.78;;;;;;;6.68;70.07;100278.50;4145653;28;20084;-65
2023/10/18 02:32:04;;;;;;;9.65;5.85;;;;;;;6.67;69.66;100278.44;4146114;28;20038;-65
2023/10/18 02:34:09;;;;;;;8.13;4.57;;;;;;;6.69;69.86;100275.09;4147555;28;20041;-65
2023/10/18 02:36:38;;;;;;;11.68;5.70;;;;;;;6.71;69.92;100264.78;4161414;28;20041;-65
2023/10/18 02:38:42;;;;;;;11.25;6.03;;;;;;;6.74;69.71;100264.88;4163131;28;20038;-66
2023/10/18 02:40:44;;;;;;;10.23;5.50;;;;;;;6.74;69.39;100267.44;4144683;28;20558;-66
2023/10/18 02:42:47;;;;;;;8.95;4.97;;;;;;;6.72;69.90;100269.13;4145615;28;20038;-66
2023/10/18 02:44:50;;;;;;;8.15;5.30;;;;;;;6.71;69.82;100272.53;4160012;28;20038;-66
2023/10/18 02:46:55;;;;;;;11.43;6.20;;;;;;;6.73;69.56;100270.88;4146903;28;20049;-65
2023/10/18 02:49:02;;;;;;;;;;;;;;;6.60;70.17;100265.38;4146499;28;20049;-65
2023/10/18 02:51:06;;;;;;;11.43;5.22;;;;;;;6.62;69.97;100275.75;4134701;28;20395;-66
2023/10/18 02:53:09;;;;;;;10.25;5.78;;;;;;;6.67;69.58;100266.41;4148639;28;20046;-65
2023/10/18 02:55:18;;;;;;;9.95;5.57;;;;;;;6.71;69.36;100251.88;4150971;28;20141;-66
2023/10/18 02:57:21;;;;;;;10.27;6.25;;;;;;;6.72;69.52;100251.06;4147145;28;20042;-66
2023/10/18 02:59:27;;;;;;;8.98;4.88;;;;;;;6.72;69.29;100253.63;4148076;28;20045;-66
2023/10/18 03:01:30;;;;;;;7.03;4.78;;;;;;;6.69;69.50;100250.94;4140707;28;20116;-66
2023/10/18 03:03:33;;;;;;;8.02;5.63;;;;;;;6.62;69.55;100250.78;4146283;28;20041;-66
2023/10/18 03:05:44;;;;;;;10.30;5.88;;;;;;;6.66;69.71;100248.28;4146748;28;20547;-66
2023/10/18 03:07:47;;;;;;;9.02;5.47;;;;;;;6.67;69.66;100239.72;4149525;28;20049;-65
2023/10/18 03:09:50;;;;;;;9.20;4.85;;;;;;;6.66;69.39;100233.69;4141929;28;20431;-66
2023/10/18 03:11:54;;;;;;;10.10;5.57;;;;;;;6.67;69.48;100229.38;4142616;28;20159;-66
2023/10/18 03:13:57;;;;;;;8.93;5.93;;;;;;;6.76;69.75;100230.50;4136930;28;20077;-65
2023/10/18 03:16:06;;;;;;;13.20;6.45;;;;;;;6.84;69.12;100204.84;4134196;28;20038;-66
2023/10/18 03:18:15;;;;;;;10.25;6.05;;;;;;;6.75;69.11;100205.50;4142762;28;20419;-66
2023/10/18 03:20:21;;;;;;;10.55;6.10;;;;;;;6.77;69.31;100208.09;4136438;28;20096;-65
2023/10/18 03:22:26;;;;;;;12.02;6.72;;;;;;;6.79;69.54;100206.44;4148088;28;20034;-65
2023/10/18 03:24:29;;;;;;;9.40;6.03;;;;;;;6.81;69.70;100212.53;4132544;28;20038;-66
2023/10/18 03:26:36;;;;;;;13.50;6.55;;;;;;;6.87;69.37;100225.59;4132312;28;20046;-66
2023/10/18 03:28:41;;;;;;;9.30;6.10;;;;;;;6.88;69.47;100209.25;4132276;28;20035;-66
2023/10/18 03:30:45;;;;;;;11.48;7.25;;;;;;;6.90;70.00;100215.31;4132384;28;20042;-66
2023/10/18 03:32:51;;;;;;;14.77;5.97;;;;;;;6.91;69.18;100214.50;4133534;28;20049;-66
2023/10/18 03:34:54;;;;;;;9.45;6.32;;;;;;;6.95;69.53;100213.75;4155310;28;20531;-66
2023/10/18 03:36:57;;;;;;;10.48;6.97;;;;;;;6.98;68.87;100205.22;4161988;28;20091;-66
2023/10/18 03:39:11;;;;;;;10.82;6.40;;;;;;;6.99;69.14;100194.91;4165783;28;20046;-66
2023/10/18 03:41:17;;;;;;;9.10;5.75;;;;;;;7.00;69.22;100198.34;4164851;28;20065;-66
2023/10/18 03:43:26;;;;;;;10.52;6.32;;;;;;;6.99;69.18;100194.00;4164761;28;20037;-66
2023/10/18 03:46:09;;;;;;;13.07;6.85;;;;;;;6.99;69.30;100191.44;4164787;28;20041;-66
2023/10/18 03:47:58;;;;;;;11.82;6.25;;;;;;;6.97;69.60;100187.94;4164367;28;20041;-66
2023/10/18 03:50:01;;;;;;;9.75;6.57;;;;;;;6.96;69.31;100186.19;4159278;28;20065;-66
2023/10/18 03:52:17;;;;;;;10.60;6.38;;;;;;;6.91;69.83;100188.66;4156258;28;20034;-65
2023/10/18 03:54:26;;;;;;;11.27;6.07;;;;;;;6.88;70.10;100182.53;4163922;28;20084;-66
2023/10/18 03:56:32;;;;;;;9.23;6.13;;;;;;;6.88;70.13;100183.41;4164700;28;20191;-67
2023/10/18 03:58:38;;;;;;;16.00;7.72;;;;;;;6.87;69.73;100197.16;4164315;28;20038;-66
2023/10/18 04:00:46;;;;;;;12.35;6.32;;;;;;;6.89;69.68;100190.34;4165635;28;20045;-66
2023/10/18 04:02:52;;;;;;;11.57;6.25;;;;;;;6.89;69.90;100182.59;4165664;28;20404;-66
2023/10/18 04:05:00;;;;;;;12.20;6.97;;;;;;;6.92;69.64;100180.09;4165665;28;20053;-66
2023/10/18 04:07:12;;;;;;;7.68;5.00;;;;;;;6.93;69.49;100174.06;4159092;28;20088;-66
2023/10/18 04:09:16;;;;;;;8.20;6.18;;;;;;;6.90;70.23;100171.41;4157120;28;20383;-66
2023/10/18 04:11:26;;;;;;;10.13;6.75;;;;;;;6.94;69.62;100168.06;4165519;28;20045;-66
2023/10/18 04:13:31;;;;;;;10.95;6.07;;;;;;;6.92;69.94;100161.09;4165518;28;20129;-66
2023/10/18 04:15:37;;;;;;;12.93;6.90;;;;;;;6.95;69.70;100164.66;4165407;28;20037;-66
2023/10/18 04:17:42;;;;;;;9.18;6.18;;;;;;;6.95;69.92;100154.31;4147497;28;20460;-66
2023/10/18 04:19:44;;;;;;;;;;;;;;;6.86;70.13;100155.78;4164669;28;20045;-66
2023/10/18 04:21:53;;;;;;;10.15;6.88;;;;;;;6.88;69.66;100152.41;4164485;28;19921;-66
2023/10/18 04:23:57;;;;;;;11.27;7.25;;;;;;;6.90;69.59;100155.03;4159653;28;20037;-65
2023/10/18 04:26:01;;;;;;;9.07;6.68;;;;;;;6.90;69.73;100157.63;4155904;28;20472;-65
2023/10/18 04:28:06;;;;;;;12.13;6.93;;;;;;;6.88;70.29;100154.09;4165131;28;20420;-66
2023/10/18 04:30:12;;;;;;;13.95;6.93;;;;;;;6.90;69.89;100155.03;4164141;28;20038;-65
2023/10/18 04:32:18;;;;;;;10.35;7.28;;;;;;;6.92;70.03;100153.34;4165127;28;20030;-65
2023/10/18 04:34:22;;;;;;;12.18;6.55;;;;;;;6.96;69.65;100156.03;4163909;28;20041;-65
2023/10/18 04:36:25;;;;;;;14.25;6.68;;;;;;;6.96;69.86;100158.63;4163911;28;20042;-65
2023/10/18 04:38:36;;;;;;;11.10;6.70;;;;;;;6.93;70.22;100150.78;4164807;28;20049;-66
2023/10/18 04:40:43;;;;;;;9.27;6.18;;;;;;;6.95;69.86;100159.47;4165141;28;20045;-65
2023/10/18 04:42:47;;;;;;;10.63;6.18;;;;;;;6.74;69.92;100151.19;4156514;28;20103;-65
2023/10/18 04:44:56;;;;;;;13.07;6.70;;;;;;;6.68;70.31;100151.91;4159818;28;20049;-65
2023/10/18 04:46:59;;;;;;;12.10;6.53;;;;;;;6.71;70.22;100139.06;4163615;28;20143;-66
2023/10/18 04:51:33;;;;;;;11.30;6.25;;;;;;;6.59;70.31;100123.28;4149818;28;20419;-66
2023/10/18 04:53:35;;;;;;;9.15;6.05;;;;;;;6.58;70.11;100127.56;4164785;28;20521;-66
2023/10/18 04:55:41;;;;;;;9.50;5.88;;;;;;;6.61;70.11;100121.59;4164836;28;20038;-66
2023/10/18 04:57:46;;;;;;;7.97;5.28;;;;;;;6.60;70.56;100132.75;4155738;28;20060;-66
2023/10/18 04:59:58;;;;;;;8.35;5.72;;;;;;;6.62;70.08;100131.09;4156427;28;20444;-66
2023/10/18 05:02:00;;;;;;;9.85;5.50;;;;;;;6.56;70.41;100118.91;4165092;28;20038;-66
2023/10/18 05:06:28;;;;;;;10.75;5.65;;;;;;;6.53;70.16;100121.41;4164744;28;20041;-65
2023/10/18 05:08:32;;;;;;;9.07;5.80;;;;;;;6.53;70.40;100117.97;4164438;28;20049;-66
2023/10/18 05:10:35;;;;;;;10.07;6.28;;;;;;;6.53;70.57;100126.59;4164598;28;20041;-65
2023/10/18 05:12:46;;;;;;;11.18;6.68;;;;;;;6.52;69.93;100126.56;4163407;28;20042;-66
2023/10/18 05:14:59;;;;;;;11.18;5.88;;;;;;;6.50;70.47;100123.94;4158191;28;20523;-66
2023/10/18 05:17:04;;;;;;;10.02;6.28;;;;;;;6.42;70.78;100123.72;4160936;28;20495;-66
2023/10/18 05:19:09;;;;;;;9.57;6.10;;;;;;;6.40;70.48;100125.41;4164387;28;20137;-66
2023/10/18 05:21:20;;;;;;;8.65;5.72;;;;;;;6.37;70.67;100132.19;4163228;28;20124;-66
2023/10/18 05:23:25;;;;;;;8.45;5.68;;;;;;;6.31;70.50;100137.19;4164517;28;20048;-65
2023/10/18 05:25:38;;;;;;;9.57;6.55;;;;;;;6.28;70.63;100118.22;4164475;28;20372;-65
2023/10/18 05:27:45;;;;;;;11.20;6.85;;;;;;;6.32;70.67;100120.88;4164178;28;20047;-65
2023/10/18 05:29:52;;;;;;;11.32;6.10;;;;;;;6.32;70.67;100119.16;4161352;28;20041;-65
2023/10/18 05:32:26;;;;;;;8.88;5.78;;;;;;;6.31;70.59;100114.84;4150542;28;20088;-65
2023/10/18 05:34:50;;;;;;;11.60;6.55;;;;;;;6.16;70.77;100107.56;4131797;28;20046;-65
2023/10/18 05:37:14;;;;;;;9.68;5.80;;;;;;;6.25;70.42;100104.34;4131640;28;20081;-65
2023/10/18 05:39:27;;;;;;;9.93;6.50;;;;;;;6.28;70.37;100102.72;4131649;28;20073;-65
2023/10/18 05:41:36;;;;;;;11.63;5.85;;;;;;;6.28;70.72;100094.97;4131676;28;20038;-65
2023/10/18 05:43:37;;;;;;;9.95;6.93;;;;;;;6.34;70.46;100098.53;4131698;28;20513;-65
2023/10/18 05:45:42;;;;;;;17.45;7.50;;;;;;;6.32;70.35;100103.66;4131635;28;20101;-66
2023/10/18 05:47:46;;;;;;;13.13;7.00;;;;;;;6.29;70.46;100096.72;4138182;28;20432;-66
2023/10/18 05:49:50;;;;;;;11.10;7.22;;;;;;;6.25;70.53;100087.16;4126309;28;20100;-66
2023/10/18 05:51:52;;;;;;;9.38;6.22;;;;;;;6.19;70.60;100084.44;4142309;28;20424;-65
2023/10/18 05:53:58;;;;;;;10.70;6.57;;;;;;;6.23;70.28;100093.97;4140768;28;20168;-66
2023/10/18 05:56:06;;;;;;;10.57;6.65;;;;;;;6.21;70.45;100090.50;4147407;28;20381;-66
2023/10/18 05:58:09;;;;;;;14.85;7.05;;;;;;;6.19;70.67;100081.84;4146888;28;20042;-66
2023/10/18 06:00:17;;;;;;;13.27;6.97;;;;;;;6.20;71.00;100083.56;4146604;28;20042;-66
2023/10/18 06:02:25;;;;;;;10.43;7.93;;;;;;;6.26;70.94;100086.34;4147431;28;20125;-66
2023/10/18 06:04:33;;;;;;;11.38;6.75;;;;;;;6.28;71.28;100086.38;4138469;28;20073;-66
2023/10/18 06:06:37;;;;;;;11.93;6.78;;;;;;;6.34;71.09;100080.47;4146335;28;20050;-66
2023/10/18 06:08:42;;;;;;;10.20;6.88;;;;;;;6.36;70.58;100071.06;4152048;28;20033;-66
2023/10/18 06:10:44;;;;;;;11.35;6.57;;;;;;;6.40;70.61;100071.19;4152574;28;20487;-66
2023/10/18 06:12:56;;;;;;;12.40;7.95;;;;;;;6.38;70.69;100071.97;4151128;28;20499;-66
2023/10/18 06:15:10;;;;;;;13.77;8.30;;;;;;;6.40;70.86;100070.31;4143463;28;20056;-66
2023/10/18 06:17:22;;;;;;;19.23;9.30;;;;;;;6.34;71.22;100081.34;4144382;28;20045;-66
2023/10/18 06:19:31;;;;;;;16.05;8.00;;;;;;;6.40;71.13;100086.66;4152457;28;20038;-66
2023/10/18 06:21:36;;;;;;;17.85;8.77;;;;;;;6.45;71.02;100086.78;4141760;28;20125;-66
2023/10/18 06:23:39;;;;;;;18.67;9.95;;;;;;;6.47;71.37;100079.97;4144701;28;20117;-66
2023/10/18 06:25:44;;;;;;;17.35;9.23;;;;;;;6.49;71.29;100080.00;4126451;28;20291;-66
2023/10/18 06:27:50;;;;;;;16.23;9.77;;;;;;;6.47;70.93;100078.25;4145546;28;20053;-66
2023/10/18 06:29:54;;;;;;;16.77;9.00;;;;;;;6.49;71.21;100083.44;4146019;28;20508;-66
2023/10/18 06:31:57;;;;;;;14.10;8.53;;;;;;;6.50;71.33;100081.72;4147048;28;20049;-66
2023/10/18 06:33:59;;;;;;;14.05;9.40;;;;;;;6.54;71.30;100084.44;4144375;28;20297;-66
2023/10/18 06:36:12;;;;;;;20.60;9.55;;;;;;;6.55;71.32;100078.41;4146579;28;20044;-65
2023/10/18 06:38:17;;;;;;;18.88;12.38;;;;;;;6.68;70.37;100070.97;4145048;28;20065;-66
2023/10/18 06:40:32;;;;;;;28.15;12.32;;;;;;;6.64;70.31;100063.16;4147295;28;20041;-66
2023/10/18 06:42:35;;;;;;;14.73;9.35;;;;;;;6.64;70.84;100075.19;4131311;28;20042;-66
2023/10/18 06:44:42;;;;;;;21.38;11.40;;;;;;;6.67;70.76;100071.81;4132455;28;20042;-66
2023/10/18 06:46:47;;;;;;;21.35;12.40;;;;;;;6.69;71.01;100068.44;4134193;28;20070;-66
2023/10/18 06:48:54;;;;;;;18.70;12.20;;;;;;;6.69;71.12;100063.25;4132932;28;20169;-65
2023/10/18 06:51:28;;;;;;;19.60;11.52;;;;;;;6.73;71.02;100066.78;4156624;28;20041;-66
2023/10/18 06:53:31;;;;;;;28.95;12.15;;;;;;;6.77;71.02;100060.84;4134107;28;20066;-66
2023/10/18 06:55:41;;;;;;;17.58;11.40;;;;;;;6.79;71.12;100054.88;4134131;28;20046;-66
2023/10/18 06:57:49;;;;;;;19.00;12.32;;;;;;;6.85;70.72;100053.25;4133882;28;20558;-66
2023/10/18 06:59:55;;;;;;;24.50;12.65;;;;;;;6.96;69.90;100052.66;4134202;28;20062;-66
2023/10/18 07:01:58;;;;;;;21.35;11.55;;;;;;;6.96;70.24;100055.25;4133988;28;20038;-66
2023/10/18 07:04:01;;;;;;;17.98;10.40;;;;;;;6.97;70.32;100054.41;4132776;28;20039;-66
2023/10/18 07:06:16;;;;;;;19.75;10.73;;;;;;;7.03;70.58;100063.16;4146021;28;20072;-66
2023/10/18 07:08:20;;;;;;;26.10;12.40;;;;;;;7.01;70.40;100049.31;4155017;28;20100;-66
2023/10/18 07:10:52;;;;;;;21.30;14.27;;;;;;;7.07;69.99;100050.34;4158240;28;20488;-66
2023/10/18 07:12:52;;;;;;;22.13;12.55;;;;;;;7.14;69.80;100057.38;4149933;28;20060;-66
2023/10/18 07:14:57;;;;;;;17.77;10.60;;;;;;;7.19;69.94;100054.91;4149992;28;20523;-66
2023/10/18 07:17:01;;;;;;;31.15;18.50;;;;;;;7.24;69.94;100067.91;4149782;28;20049;-66
2023/10/18 07:19:21;;;;;;;33.78;18.90;;;;;;;7.25;70.24;100065.34;4152605;28;20034;-66
2023/10/18 07:21:24;;;;;;;22.42;13.88;;;;;;;7.31;70.10;100060.31;4149022;28;20125;-66
2023/10/18 07:23:29;;;;;;;18.33;10.77;;;;;;;7.32;69.62;100051.72;4146632;28;20042;-66
2023/10/18 07:25:32;;;;;;;23.08;10.85;;;;;;;7.32;69.57;100051.72;4153744;28;20053;-66
2023/10/18 07:27:36;;;;;;;25.02;11.70;;;;;;;7.39;69.94;100057.00;4152384;28;20469;-66
2023/10/18 07:29:46;;;;;;;19.20;10.27;;;;;;;7.38;69.64;100039.78;4149381;28;20045;-66
2023/10/18 07:31:48;;;;;;;22.50;11.13;;;;;;;7.40;69.92;100044.09;4143931;28;20041;-66
2023/10/18 07:33:52;;;;;;;27.48;12.45;;;;;;;7.62;68.38;100032.50;4150963;28;20034;-66
2023/10/18 07:35:55;;;;;;;22.13;11.60;;;;;;;7.62;68.33;100029.91;4148492;28;20480;-66
2023/10/18 07:37:57;;;;;;;22.02;12.93;;;;;;;7.62;68.05;100029.91;4149218;28;20072;-66
2023/10/18 07:40:08;;;;;;;16.88;11.32;;;;;;;7.56;68.23;100023.75;4149387;28;20505;-66
2023/10/18 07:42:12;;;;;;;27.17;11.23;;;;;;;7.49;68.97;100027.91;4149113;28;20041;-66
2023/10/18 07:44:14;;;;;;;19.95;11.40;;;;;;;7.52;69.34;100022.81;4149382;28;20038;-66
2023/10/18 07:46:18;;;;;;;18.73;11.02;;;;;;;7.55;69.49;100022.88;4148102;28;20045;-66
2023/10/18 07:48:20;;;;;;;22.08;11.90;;;;;;;7.61;68.93;100016.94;4149562;28;20400;-66
2023/10/18 07:50:41;;;;;;;17.98;8.98;;;;;;;7.64;68.95;100017.88;4148867;28;20038;-66
2023/10/18 07:52:45;;;;;;;16.52;9.88;;;;;;;7.64;68.85;100027.34;4145199;28;20502;-66
2023/10/18 07:54:48;;;;;;;16.67;9.05;;;;;;;7.68;68.72;100024.84;4150081;28;20038;-66
2023/10/18 07:56:54;;;;;;;16.08;9.45;;;;;;;7.68;68.69;100016.19;4147929;28;20053;-66
2023/10/18 07:59:27;;;;;;;14.77;9.50;;;;;;;7.68;69.18;100017.09;4147534;28;20076;-66
2023/10/18 08:03:42;;;;;;;18.13;10.05;;;;;;;7.67;68.98;100012.75;4131616;28;20508;-66
2023/10/18 08:05:50;;;;;;;16.17;9.27;;;;;;;7.68;69.19;100013.59;4152613;28;20080;-66
2023/10/18 08:07:54;;;;;;;11.93;8.20;;;;;;;7.79;68.94;100019.00;4154667;28;20096;-66
2023/10/18 08:10:00;;;;;;;17.58;9.55;;;;;;;7.80;68.69;100011.25;4152997;28;20038;-66
2023/10/18 08:12:07;;;;;;;13.85;9.05;;;;;;;7.87;68.53;100007.09;4148925;28;20068;-66
2023/10/18 08:14:16;;;;;;;20.05;9.13;;;;;;;7.88;68.74;100013.97;4147730;28;20041;-67
2023/10/18 08:16:26;;;;;;;20.65;9.88;;;;;;;7.94;68.86;100005.44;4148526;28;20140;-66
2023/10/18 08:18:42;;;;;;;20.70;10.35;;;;;;;8.09;68.43;99999.66;4155203;28;20052;-66
2023/10/18 08:23:18;;;;;;;16.95;10.02;;;;;;;8.08;68.49;99979.81;4147541;28;19926;-66
2023/10/18 08:25:24;;;;;;;17.15;11.15;;;;;;;8.26;67.91;99967.16;4151575;28;20065;-66
2023/10/18 08:27:28;;;;;;;22.73;12.55;;;;;;;8.51;66.69;99962.38;4147547;28;20137;-66
2023/10/18 08:29:34;;;;;;;20.15;11.70;;;;;;;8.49;66.17;99969.25;4148529;28;20042;-62
2023/10/18 08:31:38;;;;;;;20.25;13.02;;;;;;;8.49;66.18;99966.66;4148530;28;20044;-65
2023/10/18 08:33:40;;;;;;;21.40;12.53;;;;;;;8.52;66.41;99959.81;4148491;28;20435;-65
2023/10/18 08:35:44;;;;;;;21.40;12.98;;;;;;;8.67;65.88;99960.88;4148120;28;20038;-64
2023/10/18 08:37:48;;;;;;;18.08;11.93;;;;;;;8.64;66.12;99961.69;4155093;28;20149;-63
2023/10/18 08:39:55;;;;;;;35.85;13.68;;;;;;;8.85;65.11;99961.13;4148410;28;20072;-65
2023/10/18 08:42:05;;;;;;;20.13;12.65;;;;;;;8.89;64.93;99969.81;4138935;28;20041;-66
2023/10/18 08:44:18;;;;;;;18.10;13.30;;;;;;;8.90;64.68;99956.00;4149061;28;20042;-64
2023/10/18 08:46:24;;;;;;;22.80;12.73;;;;;;;9.05;64.01;99961.38;4147572;28;20046;-65
2023/10/18 08:48:29;;;;;;;21.13;12.75;;;;;;;8.98;64.71;99964.75;4147453;28;20046;-67
2023/10/18 08:50:33;;;;;;;19.25;12.10;;;;;;;8.99;64.57;99963.03;4142781;28;20055;-64
2023/10/18 08:52:39;;;;;;;19.90;12.60;;;;;;;9.06;64.76;99955.31;4148283;28;20034;-66
2023/10/18 08:54:43;;;;;;;21.20;11.80;;;;;;;9.26;64.55;99939.16;4147000;28;20042;-65
2023/10/18 08:56:48;;;;;;;19.13;13.23;;;;;;;9.63;62.41;99930.88;4148121;28;20053;-66
2023/10/18 08:58:52;;;;;;;22.65;14.18;;;;;;;9.49;62.90;99933.31;4146808;28;20030;-66
2023/10/18 09:01:03;;;;;;;18.80;12.37;;;;;;;9.42;63.16;99943.63;4145042;28;20879;-65
2023/10/18 09:03:08;;;;;;;19.35;11.30;;;;;;;9.48;63.98;99937.66;4145465;28;20041;-65
2023/10/18 09:05:11;;;;;;;20.10;11.77;;;;;;;9.61;63.98;99942.09;4148246;28;20041;-65
2023/10/18 09:07:42;;;;;;;20.42;13.48;;;;;;;9.90;61.94;99935.41;4146618;28;20049;-66
2023/10/18 09:09:53;;;;;;;24.98;13.75;;;;;;;9.86;61.46;99916.38;4148292;28;20492;-66
2023/10/18 09:11:59;;;;;;;21.48;13.30;;;;;;;9.88;61.14;99922.44;4148110;28;20038;-66
2023/10/18 09:14:07;;;;;;;20.50;12.18;;;;;;;9.84;61.28;99917.19;4147812;28;20447;-66
2023/10/18 09:16:13;;;;;;;16.92;12.88;;;;;;;9.89;62.16;99915.53;4148134;28;20436;-66
2023/10/18 09:18:15;;;;;;;17.58;13.50;;;;;;;9.95;61.85;99920.75;4147967;28;20046;-66
2023/10/18 09:20:25;;;;;;;24.08;14.32;;;;;;;10.08;61.40;99922.59;4148126;28;20059;-66
2023/10/18 09:22:29;;;;;;;21.40;14.68;;;;;;;10.21;60.50;99913.16;4148119;28;20046;-66
2023/10/18 09:24:32;;;;;;;21.35;13.18;;;;;;;10.24;60.41;99909.72;4148011;28;20512;-66
2023/10/18 09:26:40;;;;;;;25.10;14.48;;;;;;;10.44;59.87;99905.56;4146877;28;20121;-66
2023/10/18 09:28:44;;;;;;;21.92;13.02;;;;;;;10.42;60.05;99912.44;4147875;28;20046;-66
2023/10/18 09:30:46;;;;;;;23.80;14.32;;;;;;;10.39;60.33;99902.03;4148088;28;20034;-66
2023/10/18 09:32:51;;;;;;;20.45;13.32;;;;;;;10.60;60.13;99911.72;4146941;28;20559;-66
2023/10/18 09:34:54;;;;;;;19.17;12.23;;;;;;;10.70;59.14;99902.19;4146664;28;20038;-66
2023/10/18 09:36:57;;;;;;;19.33;13.05;;;;;;;10.95;58.00;99900.59;4146867;28;20432;-66
2023/10/18 09:39:00;;;;;;;17.60;12.88;;;;;;;10.86;57.55;99902.28;4147769;28;20092;-66
2023/10/18 09:41:02;;;;;;;15.07;11.90;;;;;;;10.80;59.24;99901.38;4147998;28;20072;-66
2023/10/18 09:43:05;;;;;;;46.63;26.92;;;;;;;10.87;58.85;99904.03;4147943;28;20412;-66
2023/10/18 09:45:09;;;;;;;28.58;17.10;;;;;;;10.88;58.75;99890.13;4146641;28;20038;-66
2023/10/18 09:47:12;;;;;;;20.98;13.60;;;;;;;10.96;59.51;99888.44;4147692;28;20137;-66
2023/10/18 09:49:22;;;;;;;18.67;11.17;;;;;;;11.06;59.09;99889.34;4147679;28;20060;-66
2023/10/18 09:51:27;;;;;;;18.33;11.50;;;;;;;11.14;59.64;99880.72;4147900;28;20437;-66
2023/10/18 09:53:31;;;;;;;21.42;14.02;;;;;;;11.28;58.61;99882.47;4146505;28;20176;-66
2023/10/18 09:55:35;;;;;;;16.95;13.68;;;;;;;11.43;57.71;99876.41;4147686;28;20069;-66
2023/10/18 09:57:40;;;;;;;19.02;12.77;;;;;;;11.43;57.36;99869.47;4147518;28;20096;-66